createdAt,value
2018-08-13T00:01:28.918Z,98000.91
2018-08-13T00:03:57.316Z,97994.22
2018-08-13T00:06:25.478Z,97989.91
2018-08-13T00:08:53.604Z,97987.23
2018-08-13T00:11:21.804Z,97982.93
2018-08-13T00:13:50.046Z,97980.82
2018-08-13T00:16:18.299Z,97975.20
2018-08-13T00:18:46.476Z,97972.52
2018-08-13T00:21:14.587Z,97968.78
2018-08-13T00:23:42.738Z,97967.17
2018-08-13T00:26:11.088Z,97966.13
2018-08-13T00:28:39.280Z,97967.76
2018-08-13T00:31:07.544Z,97960.83
2018-08-13T00:33:35.683Z,97956.81
2018-08-13T00:36:03.824Z,97956.81
2018-08-13T00:38:32.078Z,97956.81
2018-08-13T00:41:00.306Z,97964.07
2018-08-13T00:43:28.398Z,97960.88
2018-08-13T00:45:56.614Z,97958.74
2018-08-13T00:48:24.724Z,97958.50
2018-08-13T00:50:52.888Z,97951.81
2018-08-13T00:53:21.421Z,97950.23
2018-08-13T00:55:49.588Z,97949.94
2018-08-13T00:58:17.894Z,97946.17
2018-08-13T01:00:46.022Z,97949.14
2018-08-13T01:03:14.211Z,97947.80
2018-08-13T01:05:42.342Z,97941.64
2018-08-13T01:08:10.592Z,97930.95
2018-08-13T01:10:38.830Z,97935.52
2018-08-13T01:13:07.163Z,97931.51
2018-08-13T01:15:35.362Z,97934.19
2018-08-13T01:18:03.495Z,97927.80
2018-08-13T01:20:31.630Z,97928.33
2018-08-13T01:22:59.801Z,97929.91
2018-08-13T01:25:27.951Z,97931.23
2018-08-13T01:27:56.060Z,97926.69
2018-08-13T01:30:24.242Z,97927.23
2018-08-13T01:32:52.358Z,97928.33
2018-08-13T01:35:20.440Z,97921.40
2018-08-13T01:37:48.609Z,97924.07
2018-08-13T01:40:16.922Z,97910.70
2018-08-13T01:42:45.149Z,97913.10
2018-08-13T01:45:13.380Z,97916.34
2018-08-13T01:47:42.057Z,97912.06
2018-08-13T01:50:11.499Z,97916.64
2018-08-13T01:52:39.642Z,97920.41
2018-08-13T01:55:08.851Z,97914.25
2018-08-13T01:57:36.942Z,97917.73
2018-08-13T02:00:07.907Z,97916.64
2018-08-13T02:02:36.054Z,97910.48
2018-08-13T02:05:04.590Z,97912.38
2018-08-13T02:07:32.665Z,97914.79
2018-08-13T02:10:00.802Z,97911.07
2018-08-13T02:12:29.015Z,97913.21
2018-08-13T02:14:57.120Z,97913.75
2018-08-13T02:17:25.298Z,97915.89
2018-08-13T02:19:53.483Z,97905.19
2018-08-13T02:22:21.771Z,97911.07
2018-08-13T02:24:49.870Z,97913.21
2018-08-13T02:27:17.960Z,97908.69
2018-08-13T02:29:46.231Z,97899.89
2018-08-13T02:32:14.390Z,97896.41
2018-08-13T02:34:42.535Z,97890.83
2018-08-13T02:37:10.659Z,97888.16
2018-08-13T02:39:38.788Z,97889.48
2018-08-13T02:42:06.875Z,97884.14
2018-08-13T02:44:34.987Z,97884.38
2018-08-13T02:47:03.196Z,97884.16
2018-08-13T02:49:31.268Z,97884.45
2018-08-13T02:51:59.513Z,97885.56
2018-08-13T02:54:27.635Z,97893.81
2018-08-13T02:56:55.824Z,97885.02
2018-08-13T02:59:24.206Z,97884.22
2018-08-13T03:01:52.315Z,97886.12
2018-08-13T03:04:20.427Z,97893.05
2018-08-13T03:06:48.499Z,97885.80
2018-08-13T03:09:16.588Z,97883.13
2018-08-13T03:11:45.133Z,97880.45
2018-08-13T03:14:13.301Z,97877.77
2018-08-13T03:16:41.422Z,97873.52
2018-08-13T03:19:09.519Z,97870.84
2018-08-13T03:21:37.616Z,97874.09
2018-08-13T03:24:05.878Z,97878.87
2018-08-13T03:26:33.997Z,97881.30
2018-08-13T03:29:02.111Z,97889.33
2018-08-13T03:31:30.227Z,97892.08
2018-08-13T03:33:58.398Z,97886.33
2018-08-13T03:36:26.660Z,97884.99
2018-08-13T03:38:54.770Z,97881.55
2018-08-13T03:41:22.871Z,97879.94
2018-08-13T03:43:51.335Z,97871.97
2018-08-13T03:46:19.458Z,97873.31
2018-08-13T03:48:47.686Z,97869.53
2018-08-13T03:51:15.799Z,97864.46
2018-08-13T03:53:43.953Z,97859.64
2018-08-13T03:56:12.334Z,97851.33
2018-08-13T03:58:40.401Z,97859.59
2018-08-13T04:01:08.767Z,97850.23
2018-08-13T04:03:36.866Z,97843.55
2018-08-13T04:06:05.074Z,97836.86
2018-08-13T04:08:33.211Z,97839.30
2018-08-13T04:11:01.323Z,97836.09
2018-08-13T04:13:29.529Z,97834.99
2018-08-13T04:15:57.607Z,97829.70
2018-08-13T04:18:25.706Z,97831.04
2018-08-13T04:20:53.813Z,97833.71
2018-08-13T04:23:21.974Z,97835.05
2018-08-13T04:25:50.245Z,97836.63
2018-08-13T04:28:18.439Z,97828.36
2018-08-13T04:30:46.526Z,97829.94
2018-08-13T04:33:14.715Z,97821.92
2018-08-13T04:35:43.147Z,97824.59
2018-08-13T04:38:11.675Z,97825.12
2018-08-13T04:40:39.770Z,97816.57
2018-08-13T04:43:08.099Z,97815.23
2018-08-13T04:45:36.235Z,97814.70
2018-08-13T04:48:04.399Z,97812.03
2018-08-13T04:50:32.570Z,97824.83
2018-08-13T04:53:00.702Z,97826.44
2018-08-13T04:55:28.991Z,97824.54
2018-08-13T04:57:57.154Z,97822.42
2018-08-13T05:00:25.275Z,97821.86
2018-08-13T05:02:53.590Z,97823.20
2018-08-13T05:05:21.670Z,97829.35
2018-08-13T05:07:49.899Z,97827.48
2018-08-13T05:10:18.150Z,97828.25
2018-08-13T05:12:46.360Z,97822.91
2018-08-13T05:15:14.623Z,97812.21
2018-08-13T05:17:42.876Z,97818.12
2018-08-13T05:20:11.054Z,97820.23
2018-08-13T05:22:39.198Z,97820.23
2018-08-13T05:25:08.463Z,97812.80
2018-08-13T05:27:36.737Z,97811.60
2018-08-13T05:30:06.375Z,97820.83
2018-08-13T05:32:35.082Z,97817.45
2018-08-13T05:35:03.331Z,97822.30
2018-08-13T05:37:31.576Z,97829.51
2018-08-13T05:39:59.863Z,97826.06
2018-08-13T05:42:28.083Z,97823.88
2018-08-13T05:44:56.886Z,97840.66
2018-08-13T05:47:25.015Z,97847.85
2018-08-13T05:49:53.295Z,97852.34
2018-08-13T05:52:21.523Z,97847.27
2018-08-13T05:54:49.728Z,97851.22
2018-08-13T05:57:17.975Z,97852.74
2018-08-13T05:59:46.089Z,97847.91
2018-08-13T06:02:14.323Z,97844.43
2018-08-13T06:04:42.591Z,97847.08
2018-08-13T06:07:10.678Z,97854.99
2018-08-13T06:09:38.890Z,97853.31
2018-08-13T06:12:07.025Z,97859.77
2018-08-13T06:14:35.207Z,97861.41
2018-08-13T06:17:03.323Z,97864.88
2018-08-13T06:19:31.403Z,97865.63
2018-08-13T06:21:59.650Z,97869.83
2018-08-13T06:24:27.811Z,97866.84
2018-08-13T06:26:55.966Z,97871.03
2018-08-13T06:29:24.058Z,97874.99
2018-08-13T06:31:52.195Z,97873.36
2018-08-13T06:34:20.438Z,97866.95
2018-08-13T06:36:48.519Z,97874.09
2018-08-13T06:39:16.825Z,97861.41
2018-08-13T06:41:44.986Z,97871.45
2018-08-13T06:44:13.123Z,97874.83
2018-08-13T06:46:41.323Z,97872.78
2018-08-13T06:49:09.415Z,97881.31
2018-08-13T06:51:37.536Z,97888.59
2018-08-13T06:54:05.751Z,97893.89
2018-08-13T06:56:33.863Z,97895.44
2018-08-13T06:59:01.979Z,97910.13
2018-08-13T07:01:30.239Z,97912.03
2018-08-13T07:03:58.463Z,97918.72
2018-08-13T07:06:26.573Z,97925.11
2018-08-13T07:08:54.679Z,97928.09
2018-08-13T07:11:22.904Z,97944.38
2018-08-13T07:13:50.989Z,97957.17
2018-08-13T07:16:19.364Z,97965.44
2018-08-13T07:18:47.444Z,97973.46
2018-08-13T07:21:15.529Z,97987.65
2018-08-13T07:23:43.902Z,97992.14
2018-08-13T07:26:12.013Z,97989.73
2018-08-13T07:28:40.286Z,97998.30
2018-08-13T07:31:08.391Z,97990.51
2018-08-13T07:33:36.705Z,97990.51
2018-08-13T07:36:04.755Z,97994.80
2018-08-13T07:38:32.849Z,98004.70
2018-08-13T07:41:01.177Z,97998.81
2018-08-13T07:43:29.274Z,98005.73
2018-08-13T07:45:57.358Z,98009.75
2018-08-13T07:48:25.623Z,98005.50
2018-08-13T07:50:53.711Z,97999.10
2018-08-13T07:53:21.935Z,98002.31
2018-08-13T07:55:50.011Z,98003.12
2018-08-13T07:58:18.089Z,98007.08
2018-08-13T08:00:46.359Z,97997.47
2018-08-13T08:03:14.567Z,97999.34
2018-08-13T08:05:42.775Z,97988.64
2018-08-13T08:08:10.952Z,98000.68
2018-08-13T08:10:39.278Z,98001.22
2018-08-13T08:13:08.012Z,98000.15
2018-08-13T08:15:36.093Z,98007.31
2018-08-13T08:18:04.877Z,98000.62
2018-08-13T08:20:32.979Z,98009.17
2018-08-13T08:23:01.104Z,98020.11
2018-08-13T08:25:29.222Z,98028.95
2018-08-13T08:27:57.398Z,98035.07
2018-08-13T08:30:25.538Z,98032.16
2018-08-13T08:32:53.634Z,98027.95
2018-08-13T08:35:21.835Z,98040.23
2018-08-13T08:37:49.944Z,98051.48
2018-08-13T08:40:19.857Z,98048.51
2018-08-13T08:42:48.538Z,98041.81
2018-08-13T08:45:19.679Z,98048.45
2018-08-13T08:47:48.058Z,98043.38
2018-08-13T08:50:16.644Z,98052.98
2018-08-13T08:52:45.529Z,98063.92
2018-08-13T08:55:13.656Z,98064.44
2018-08-13T08:57:41.811Z,98066.29
2018-08-13T09:00:14.743Z,98061.95
2018-08-13T09:02:42.831Z,98054.19
2018-08-13T09:05:11.003Z,98060.19
2018-08-13T09:07:39.430Z,98069.28
2018-08-13T09:10:08.260Z,98084.34
2018-08-13T09:12:36.622Z,98091.38
2018-08-13T09:15:05.236Z,98097.56
2018-08-13T09:17:44.730Z,98091.38
2018-08-13T09:21:25.055Z,98096.91
2018-08-13T09:24:04.524Z,98103.02
2018-08-13T09:26:44.201Z,98108.61
2018-08-13T09:29:23.591Z,98110.11
2018-08-13T09:32:30.449Z,98112.10
2018-08-13T09:35:37.042Z,98113.25
2018-08-13T09:38:05.722Z,98118.86
2018-08-13T09:40:34.239Z,98118.86
2018-08-13T09:43:02.486Z,98116.52
2018-08-13T09:45:30.632Z,98120.53
2018-08-13T09:47:58.862Z,98119.20
2018-08-13T09:50:27.114Z,98130.48
2018-08-13T09:52:55.310Z,98122.21
2018-08-13T09:55:23.554Z,98126.76
2018-08-13T09:57:52.047Z,98119.78
2018-08-13T10:00:26.397Z,98118.63
2018-08-13T10:02:54.563Z,98110.31
2018-08-13T10:05:22.835Z,98103.63
2018-08-13T10:07:50.991Z,98105.22
2018-08-13T10:10:19.108Z,98101.80
2018-08-13T10:12:48.566Z,98102.80
2018-08-13T10:15:16.760Z,98105.22
2018-08-13T10:17:44.947Z,98098.55
2018-08-13T10:20:16.571Z,98101.47
2018-08-13T10:22:44.822Z,98096.05
2018-08-13T10:25:13.527Z,98094.47
2018-08-13T10:27:42.091Z,98092.38
2018-08-13T10:30:11.784Z,98093.97
2018-08-13T10:32:40.600Z,98101.80
2018-08-13T10:35:08.969Z,98102.39
2018-08-13T10:37:37.580Z,98106.16
2018-08-13T10:40:08.198Z,98108.83
2018-08-13T10:42:36.535Z,98112.38
2018-08-13T10:45:05.403Z,98104.37
2018-08-13T10:47:33.717Z,98101.21
2018-08-13T10:50:01.800Z,98105.13
2018-08-13T10:52:29.899Z,98101.53
2018-08-13T10:54:58.049Z,98107.36
2018-08-13T10:57:26.388Z,98093.08
2018-08-13T10:59:54.639Z,98085.03
2018-08-13T11:02:22.750Z,98088.75
2018-08-13T11:04:50.859Z,98095.91
2018-08-13T11:07:19.020Z,98087.61
2018-08-13T11:09:47.103Z,98076.91
2018-08-13T11:12:15.350Z,98071.82
2018-08-13T11:14:43.547Z,98079.23
2018-08-13T11:17:11.732Z,98084.86
2018-08-13T11:19:39.864Z,98084.56
2018-08-13T11:22:07.935Z,98073.81
2018-08-13T11:24:36.159Z,98046.80
2018-08-13T11:27:04.387Z,98039.25
2018-08-13T11:29:32.542Z,98045.94
2018-08-13T11:32:00.687Z,98052.91
2018-08-13T11:34:28.811Z,98064.39
2018-08-13T11:36:57.723Z,98065.97
2018-08-13T11:39:25.797Z,98052.05
2018-08-13T11:41:54.053Z,98056.06
2018-08-13T11:44:22.151Z,98059.25
2018-08-13T11:46:50.283Z,98057.33
2018-08-13T11:49:18.376Z,98059.44
2018-08-13T11:51:46.485Z,98038.59
2018-08-13T11:54:14.884Z,98032.13
2018-08-13T11:56:43.018Z,98037.72
2018-08-13T11:59:11.123Z,98022.77
2018-08-13T12:01:39.215Z,98038.98
2018-08-13T12:04:07.313Z,98029.85
2018-08-13T12:06:35.422Z,98030.09
2018-08-13T12:09:05.122Z,98012.45
2018-08-13T12:11:33.250Z,98018.04
2018-08-13T12:14:01.501Z,98018.84
2018-08-13T12:16:29.600Z,98017.21
2018-08-13T12:18:57.723Z,98016.47
2018-08-13T12:21:25.795Z,98024.44
2018-08-13T12:23:53.878Z,98024.66
2018-08-13T12:26:22.102Z,98021.68
2018-08-13T12:28:50.169Z,98020.28
2018-08-13T12:31:18.239Z,98019.19
2018-08-13T12:33:46.343Z,98015.16
2018-08-13T12:36:14.431Z,98012.25
2018-08-13T12:38:42.563Z,98007.19
2018-08-13T12:41:10.699Z,97998.56
2018-08-13T12:43:38.815Z,98000.59
2018-08-13T12:46:07.292Z,97995.63
2018-08-13T12:48:35.544Z,97995.44
2018-08-13T12:51:03.764Z,97988.59
2018-08-13T12:53:31.968Z,97986.95
2018-08-13T12:56:00.068Z,97985.75
2018-08-13T12:58:28.355Z,97988.75
2018-08-13T13:00:59.595Z,97983.05
2018-08-13T13:03:28.284Z,97981.08
2018-08-13T13:05:56.395Z,97980.75
2018-08-13T13:08:24.494Z,97987.98
2018-08-13T13:10:52.667Z,97991.17
2018-08-13T13:13:20.875Z,97997.51
2018-08-13T13:15:48.991Z,98000.66
2018-08-13T13:18:17.248Z,98003.94
2018-08-13T13:20:45.568Z,97988.22
2018-08-13T13:23:14.150Z,97981.83
2018-08-13T13:25:42.311Z,97978.37
2018-08-13T13:28:10.484Z,97983.13
2018-08-13T13:30:38.658Z,97983.36
2018-08-13T13:33:06.912Z,97982.77
2018-08-13T13:35:34.987Z,97977.41
2018-08-13T13:38:03.251Z,97980.02
2018-08-13T13:40:31.426Z,97966.91
2018-08-13T13:42:59.659Z,97956.99
2018-08-13T13:45:27.902Z,97964.23
2018-08-13T13:47:56.039Z,97955.69
2018-08-13T13:50:24.227Z,97952.00
2018-08-13T13:52:52.471Z,97954.69
2018-08-13T13:55:20.708Z,97947.98
2018-08-13T13:57:48.824Z,97942.92
2018-08-13T14:00:21.088Z,97942.36
2018-08-13T14:02:50.336Z,97944.00
2018-08-13T14:05:18.570Z,97933.88
2018-08-13T14:07:46.883Z,97940.34
2018-08-13T14:10:18.671Z,97945.70
2018-08-13T14:12:47.018Z,97932.00
2018-08-13T14:15:17.494Z,97930.36
2018-08-13T14:17:45.657Z,97930.42
2018-08-13T14:20:13.745Z,97926.94
2018-08-13T14:22:43.366Z,97923.53
2018-08-13T14:25:12.913Z,97926.77
2018-08-13T14:27:41.417Z,97924.63
2018-08-13T14:30:17.282Z,97919.03
2018-08-13T14:32:45.867Z,97920.37
2018-08-13T14:35:13.994Z,97925.47
2018-08-13T14:37:42.247Z,97934.61
2018-08-13T14:40:11.564Z,97939.47
2018-08-13T14:42:39.660Z,97950.19
2018-08-13T14:45:09.581Z,97950.19
2018-08-13T14:47:37.818Z,97941.85
2018-08-13T14:50:07.213Z,97938.87
2018-08-13T14:52:35.314Z,97928.88
2018-08-13T14:55:03.523Z,97933.41
2018-08-13T14:57:31.660Z,97942.42
2018-08-13T14:59:59.771Z,97941.28
2018-08-13T15:02:27.930Z,97932.91
2018-08-13T15:04:56.043Z,97932.56
2018-08-13T15:07:24.230Z,97924.52
2018-08-13T15:09:52.321Z,97932.80
2018-08-13T15:12:20.812Z,97926.64
2018-08-13T15:14:48.910Z,97929.28
2018-08-13T15:17:17.005Z,97938.66
2018-08-13T15:19:45.192Z,97934.64
2018-08-13T15:22:13.281Z,97928.17
2018-08-13T15:24:41.506Z,97925.49
2018-08-13T15:27:09.658Z,97917.95
2018-08-13T15:29:37.747Z,97908.56
2018-08-13T15:32:06.047Z,97911.25
2018-08-13T15:34:34.171Z,97908.80
2018-08-13T15:37:02.329Z,97909.27
2018-08-13T15:39:30.455Z,97907.09
2018-08-13T15:41:58.833Z,97907.09
2018-08-13T15:44:27.626Z,97906.59
2018-08-13T15:46:55.818Z,97911.72
2018-08-13T15:49:23.983Z,97919.95
2018-08-13T15:51:52.476Z,97911.11
2018-08-13T15:54:20.792Z,97906.85
2018-08-13T15:56:48.918Z,97901.48
2018-08-13T15:59:17.134Z,97893.68
2018-08-13T16:01:45.268Z,97882.42
2018-08-13T16:04:13.846Z,97888.55
2018-08-13T16:06:42.029Z,97893.68
2018-08-13T16:09:10.208Z,97896.13
2018-08-13T16:11:38.847Z,97894.78
2018-08-13T16:14:06.963Z,97896.36
2018-08-13T16:16:35.194Z,97895.56
2018-08-13T16:19:03.428Z,97893.91
2018-08-13T16:21:31.622Z,97891.50
2018-08-13T16:23:59.776Z,97886.37
2018-08-13T16:26:27.999Z,97878.05
2018-08-13T16:28:56.145Z,97873.50
2018-08-13T16:31:24.733Z,97870.05
2018-08-13T16:33:52.804Z,97872.73
2018-08-13T16:36:21.484Z,97868.94
2018-08-13T16:38:49.720Z,97854.50
2018-08-13T16:41:17.870Z,97857.98
2018-08-13T16:43:46.011Z,97850.78
2018-08-13T16:46:14.226Z,97856.83
2018-08-13T16:48:42.411Z,97854.64
2018-08-13T16:51:10.531Z,97854.58
2018-08-13T16:53:38.639Z,97861.16
2018-08-13T16:56:06.743Z,97859.18
2018-08-13T16:58:34.818Z,97853.34
2018-08-13T17:01:02.982Z,97858.33
2018-08-13T17:03:31.377Z,97854.08
2018-08-13T17:05:59.590Z,97861.02
2018-08-13T17:08:27.817Z,97862.89
2018-08-13T17:10:55.901Z,97858.22
2018-08-13T17:13:24.039Z,97867.53
2018-08-13T17:15:52.172Z,97857.91
2018-08-13T17:18:20.280Z,97867.22
2018-08-13T17:20:48.794Z,97865.95
2018-08-13T17:23:17.143Z,97872.44
2018-08-13T17:25:45.311Z,97873.89
2018-08-13T17:28:13.565Z,97875.42
2018-08-13T17:30:41.555Z,97879.48
2018-08-13T17:33:10.039Z,97875.54
2018-08-13T17:35:38.503Z,97881.90
2018-08-13T17:38:08.534Z,97883.05
2018-08-13T17:40:36.740Z,97884.54
2018-08-13T17:43:05.939Z,97884.39
2018-08-13T17:45:34.047Z,97881.86
2018-08-13T17:48:02.222Z,97887.84
2018-08-13T17:50:30.449Z,97898.70
2018-08-13T17:52:58.523Z,97897.25
2018-08-13T17:55:27.246Z,97897.33
2018-08-13T17:57:55.323Z,97899.18
2018-08-13T18:00:25.807Z,97900.76
2018-08-13T18:02:54.015Z,97904.28
2018-08-13T18:05:25.338Z,97909.88
2018-08-13T18:07:54.269Z,97906.61
2018-08-13T18:10:27.040Z,97906.30
2018-08-13T18:12:55.936Z,97919.51
2018-08-13T18:15:24.031Z,97919.74
2018-08-13T18:17:52.183Z,97925.84
2018-08-13T18:20:20.325Z,97934.08
2018-08-13T18:22:48.547Z,97939.73
2018-08-13T18:25:17.099Z,97945.70
2018-08-13T18:27:46.753Z,97935.35
2018-08-13T18:30:20.279Z,97935.34
2018-08-13T18:32:48.647Z,97932.77
2018-08-13T18:35:17.066Z,97942.66
2018-08-13T18:37:45.392Z,97936.39
2018-08-13T18:40:17.279Z,97945.70
2018-08-13T18:42:45.407Z,97943.69
2018-08-13T18:45:13.656Z,97946.81
2018-08-13T18:47:41.786Z,97953.08
2018-08-13T18:50:13.411Z,97950.96
2018-08-13T18:52:42.052Z,97965.70
2018-08-13T18:55:11.024Z,97966.91
2018-08-13T18:57:39.157Z,97977.47
2018-08-13T19:00:09.701Z,97978.31
2018-08-13T19:02:38.303Z,97979.21
2018-08-13T19:05:06.910Z,97980.02
2018-08-13T19:07:35.083Z,97985.68
2018-08-13T19:10:03.302Z,97992.52
2018-08-13T19:12:31.436Z,97997.88
2018-08-13T19:14:59.638Z,97994.09
2018-08-13T19:17:27.891Z,98000.12
2018-08-13T19:19:56.028Z,98002.88
2018-08-13T19:22:25.828Z,98006.29
2018-08-13T19:24:54.224Z,98008.92
2018-08-13T19:27:22.445Z,98007.48
2018-08-13T19:29:50.592Z,98010.19
2018-08-13T19:32:18.756Z,98005.19
2018-08-13T19:34:47.435Z,98013.06
2018-08-13T19:37:15.644Z,98015.47
2018-08-13T19:39:43.792Z,98014.17
2018-08-13T19:42:12.235Z,98010.99
2018-08-13T19:44:40.498Z,98006.23
2018-08-13T19:47:09.228Z,98013.91
2018-08-13T19:49:37.407Z,98010.39
2018-08-13T19:52:06.377Z,98013.33
2018-08-13T19:54:34.757Z,98010.18
2018-08-13T19:57:02.956Z,98010.45
2018-08-13T19:59:31.063Z,98012.16
2018-08-13T20:01:59.240Z,98012.59
2018-08-13T20:04:27.359Z,98003.41
2018-08-13T20:06:55.541Z,98003.10
2018-08-13T20:09:23.639Z,98003.30
2018-08-13T20:11:54.372Z,98009.44
2018-08-13T20:14:23.806Z,98018.45
2018-08-13T20:16:52.385Z,98012.55
2018-08-13T20:19:20.787Z,98008.77
2018-08-13T20:21:49.242Z,98012.31
2018-08-13T20:24:17.385Z,98014.50
2018-08-13T20:26:45.499Z,98015.61
2018-08-13T20:29:13.601Z,98021.27
2018-08-13T20:31:42.479Z,98022.91
2018-08-13T20:34:10.566Z,98025.59
2018-08-13T20:36:39.611Z,98022.67
2018-08-13T20:39:12.872Z,98026.44
2018-08-13T20:41:41.151Z,98018.89
2018-08-13T20:44:09.836Z,98020.77
2018-08-13T20:46:38.211Z,98026.13
2018-08-13T20:49:06.903Z,98031.56
2018-08-13T20:51:35.518Z,98036.13
2018-08-13T20:54:03.960Z,98030.83
2018-08-13T20:56:32.070Z,98037.30
2018-08-13T20:59:00.212Z,98037.86
2018-08-13T21:01:28.417Z,98036.59
2018-08-13T21:03:56.739Z,98036.15
2018-08-13T21:06:24.852Z,98034.31
2018-08-13T21:08:52.950Z,98037.12
2018-08-13T21:11:21.166Z,98037.72
2018-08-13T21:13:49.435Z,98049.84
2018-08-13T21:16:17.583Z,98045.62
2018-08-13T21:18:46.209Z,98048.06
2018-08-13T21:21:14.430Z,98051.58
2018-08-13T21:23:42.532Z,98052.41
2018-08-13T21:26:10.643Z,98053.52
2018-08-13T21:28:38.826Z,98061.85
2018-08-13T21:31:06.964Z,98062.45
2018-08-13T21:33:35.040Z,98063.84
2018-08-13T21:36:03.174Z,98078.08
2018-08-13T21:38:31.282Z,98079.42
2018-08-13T21:40:59.487Z,98077.61
2018-08-13T21:43:27.863Z,98078.20
2018-08-13T21:45:56.649Z,98081.98
2018-08-13T21:48:24.741Z,98072.09
2018-08-13T21:50:52.971Z,98071.29
2018-08-13T21:53:25.357Z,98076.95
2018-08-13T21:55:53.620Z,98078.58
2018-08-13T21:58:21.758Z,98075.91
2018-08-13T22:00:55.331Z,98082.13
2018-08-13T22:03:23.467Z,98079.74
2018-08-13T22:05:51.665Z,98084.59
2018-08-13T22:08:19.898Z,98095.31
2018-08-13T22:10:48.260Z,98089.72
2018-08-13T22:13:16.372Z,98101.42
2018-08-13T22:15:44.710Z,98102.73
2018-08-13T22:18:13.115Z,98107.85
2018-08-13T22:20:41.405Z,98105.41
2018-08-13T22:23:09.715Z,98109.83
2018-08-13T22:25:39.845Z,98111.75
2018-08-13T22:28:09.359Z,98113.91
2018-08-13T22:30:37.598Z,98113.59
2018-08-13T22:33:07.184Z,98109.16
2018-08-13T22:35:35.469Z,98112.70
2018-08-13T22:38:03.871Z,98115.47
2018-08-13T22:40:32.216Z,98111.27
2018-08-13T22:43:00.439Z,98113.51
2018-08-13T22:45:28.535Z,98119.19
2018-08-13T22:47:56.725Z,98116.23
2018-08-13T22:50:24.900Z,98113.56
2018-08-13T22:52:53.055Z,98119.32
2018-08-13T22:55:21.165Z,98128.70
2018-08-13T22:57:49.523Z,98129.27
2018-08-13T23:00:19.675Z,98127.45
2018-08-13T23:02:48.567Z,98130.20
2018-08-13T23:05:20.984Z,98137.20
2018-08-13T23:07:49.269Z,98139.08
2018-08-13T23:10:18.919Z,98135.39
2018-08-13T23:12:48.082Z,98141.82
2018-08-13T23:15:16.899Z,98143.23
2018-08-13T23:17:45.584Z,98145.34
2018-08-13T23:20:19.782Z,98151.53
2018-08-13T23:23:03.435Z,98157.48
2018-08-13T23:25:33.117Z,98161.59
2018-08-13T23:28:02.429Z,98158.12
2018-08-13T23:30:30.806Z,98162.94
2018-08-13T23:32:59.787Z,98166.76
2018-08-13T23:35:28.571Z,98163.00
2018-08-13T23:37:57.063Z,98163.00
2018-08-13T23:40:25.773Z,98161.45
2018-08-13T23:42:53.909Z,98164.16
2018-08-13T23:45:24.176Z,98165.77
2018-08-13T23:47:52.310Z,98165.31
2018-08-13T23:50:22.323Z,98160.56
2018-08-13T23:52:51.618Z,98158.45
2018-08-13T23:55:26.467Z,98162.27
2018-08-13T23:57:55.097Z,98160.46
